Data for 04/17/2010

Time Sea-Level Adjusted Pressure Absolute Pressure Temperature Relative Humidity Dew Point   
(mb) (inHg) (mb) (inHg) (C) (F) (%) (C) (F)
00:05 1017 30.03 847 25.01 11.3 52.3 40 -1.8 28.8
00:10 1017 30.03 847 25.01 11.2 52.2 40 -1.7 29
00:15 1017 30.03 847 25.01 11.1 51.9 41 -1.7 29
00:20 1017 30.03 847 25.01 11 51.7 41 -1.6 29.1
00:25 1017 30.03 847 25.01 11 51.7 41 -1.7 29
00:30 1018 30.06 847 25.01 10.8 51.5 42 -1.5 29.2
00:35 1018 30.06 847 25.01 10.9 51.6 41 -1.7 28.9
00:40 1018 30.06 847 25.01 10.6 51.1 43 -1.3 29.7
00:45 1018 30.06 847 25.01 10.1 50.2 44 -1.6 29
00:50 1018 30.06 847 25.01 9.8 49.6 44 -1.8 28.7
00:55 1017 30.03 847 25.01 9.7 49.4 44 -2.1 28.3
01:00 1017 30.03 847 25.01 9.7 49.4 44 -2 28.4
01:05 1017 30.03 847 25.01 9.4 49 45 -1.9 28.6
01:10 1017 30.03 847 25.01 9.2 48.5 46 -1.7 28.9
01:15 1017 30.03 847 25.01 8.8 47.8 49 -1.4 29.5
01:20 1017 30.03 847 25.01 8.5 47.3 50 -1.4 29.5
01:25 1017 30.03 847 25.01 8.4 47.2 47 -2.1 28.2
01:30 1017 30.03 846 24.98 8.7 47.6 48 -1.8 28.8
01:35 1017 30.03 846 24.98 8.1 46.5 49 -1.9 28.5
01:40 1017 30.03 846 24.98 7.7 45.9 50 -1.9 28.5
01:45 1017 30.03 846 24.98 7.8 46.1 50 -1.8 28.7
01:50 1017 30.03 846 24.98 8 46.3 49 -2.2 28.1
01:55 1017 30.03 846 24.98 7.1 44.8 54 -1.4 29.4
02:00 1017 30.03 846 24.98 6.8 44.2 53 -2.1 28.3
02:05 1017 30.03 846 24.98 7.3 45.1 52 -1.9 28.6
02:10 1017 30.03 846 24.98 7.3 45.1 54 -1.4 29.5
02:15 1017 30.03 846 24.98 7.2 44.9 53 -1.8 28.8
02:20 1017 30.03 846 24.98 7.5 45.5 49 -2.5 27.4
02:25 1017 30.03 846 24.98 7.7 45.9 49 -2.3 27.9
02:30 1017 30.03 846 24.98 8 46.3 48 -2.4 27.6
02:35 1017 30.03 846 24.98 8 46.5 48 -2.3 27.9
02:40 1017 30.03 846 24.98 8.3 47 48 -2.1 28.2
02:45 1017 30.03 846 24.98 8.6 47.5 47 -1.9 28.5
02:50 1017 30.03 846 24.98 8.6 47.4 48 -1.6 29
02:55 1017 30.03 846 24.98 8.2 46.8 50 -1.5 29.4
03:00 1017 30.03 846 24.98 8.1 46.6 51 -1.4 29.5
03:05 1017 30.03 846 24.98 8.2 46.7 51 -1.4 29.5
03:10 1017 30.03 846 24.98 8.2 46.7 50 -1.5 29.3
03:15 1017 30.03 846 24.98 8.3 46.9 50 -1.5 29.3
03:20 1017 30.03 846 24.98 8.3 47 50 -1.4 29.4
03:25 1017 30.03 846 24.98 8.3 46.9 51 -1.3 29.7
03:30 1017 30.03 846 24.98 8.2 46.7 51 -1.2 29.8
03:35 1017 30.03 846 24.98 8.2 46.8 50 -1.4 29.4
03:40 1016 30 846 24.98 8.5 47.3 49 -1.7 29
03:45 1016 30 846 24.98 8.6 47.5 49 -1.6 29.2
03:50 1016 30 846 24.98 8.6 47.4 49 -1.6 29
03:55 1016 30 846 24.98 8.6 47.4 49 -1.5 29.2
04:00 1016 30 846 24.98 8.4 47.2 50 -1.5 29.3
04:05 1016 30 846 24.98 8.3 47 50 -1.3 29.6
04:10 1016 30 846 24.98 8.3 46.9 52 -1 30.3
04:15 1016 30 846 24.98 8.1 46.5 53 -1 30.2
04:20 1016 30 846 24.98 8 46.5 53 -1 30.2
04:25 1016 30 846 24.98 8.1 46.6 52 -1.2 29.9
04:30 1017 30.03 846 24.98 8.3 46.9 50 -1.5 29.3
04:35 1016 30 846 24.98 8.4 47 49 -1.6 29
04:40 1017 30.03 846 24.98 8.3 46.9 49 -1.8 28.8
04:45 1016 30 846 24.98 8.4 47 47 -2.3 27.9
04:50 1016 30 846 24.98 8.5 47.3 49 -1.7 29
04:55 1016 30 846 24.98 8.4 47 49 -1.6 29.2
05:00 1017 30.03 846 24.98 8.3 46.9 48 -2.1 28.3
05:05 1017 30.03 846 24.98 8.7 47.7 44 -2.7 27.1
05:10 1017 30.03 846 24.98 8.9 48 47 -1.7 29
05:15 1017 30.03 846 24.98 8.7 47.7 48 -1.7 28.9
05:20 1017 30.03 846 24.98 8.9 48 47 -1.7 29
05:25 1017 30.03 846 24.98 8.9 48.1 47 -1.7 28.9
05:30 1017 30.03 846 24.98 8.9 47.9 46 -2 28.4
05:35 1017 30.03 846 24.98 8.9 48.1 46 -1.9 28.5
05:40 1017 30.03 846 24.98 9.1 48.3 47 -1.7 29
05:45 1017 30.03 846 24.98 8.8 47.8 48 -1.5 29.3
05:50 1017 30.03 846 24.98 8.6 47.5 50 -1.3 29.7
05:55 1017 30.03 846 24.98 8.3 46.9 51 -1.2 29.8
06:00 1016 30 846 24.98 8.1 46.6 52 -1.2 29.8
06:05 1017 30.03 846 24.98 8.1 46.6 52 -1.2 29.8
06:10 1017 30.03 846 24.98 8.4 47.2 49 -1.6 29.1
06:15 1016 30 846 24.98 8.6 47.6 49 -1.4 29.4
06:20 1016 30 846 24.98 8.6 47.5 49 -1.6 29.1
06:25 1016 30 846 24.98 8.9 48 49 -1.3 29.6
06:30 1017 30.03 846 24.98 8.5 47.4 50 -1.2 29.9
06:35 1017 30.03 846 24.98 8.3 47 48 -1.9 28.5
06:40 1016 30 846 24.98 8.7 47.7 49 -1.4 29.4
06:45 1016 30 846 24.98 8.5 47.2 48 -2 28.4
06:50 1017 30.03 846 24.98 8.6 47.4 47 -2 28.4
06:55 1017 30.03 846 24.98 8.4 47.1 46 -2.5 27.5
07:00 1017 30.03 846 24.98 8.5 47.3 45 -2.8 27
07:05 1017 30.03 846 24.98 8.4 47.1 47 -2.3 27.8
07:10 1017 30.03 846 24.98 8.3 46.9 45 -2.9 26.7
07:15 1017 30.03 846 24.98 8.2 46.8 46 -2.7 27.1
07:20 1017 30.03 846 24.98 8.3 46.9 45 -2.9 26.7
07:25 1017 30.03 846 24.98 8.4 47.1 47 -2.4 27.7
07:30 1017 30.03 846 24.98 8.2 46.8 46 -2.6 27.4
07:35 1017 30.03 846 24.98 8.3 46.9 46 -2.6 27.3
07:40 1017 30.03 846 24.98 8.4 47 48 -2.1 28.3
07:45 1017 30.03 846 24.98 8 46.5 50 -1.7 28.9
07:50 1017 30.03 846 24.98 8 46.4 50 -1.9 28.6
07:55 1017 30.03 846 24.98 8.1 46.7 49 -1.8 28.7
08:00 1017 30.03 846 24.98 8.4 47.1 47 -2.3 27.8
08:05 1017 30.03 846 24.98 8.9 48.1 46 -2 28.4
08:10 1017 30.03 846 24.98 9.2 48.5 47 -1.6 29.1
08:15 1017 30.03 846 24.98 9.2 48.6 47 -1.5 29.4
08:20 1017 30.03 846 24.98 9.3 48.8 46 -1.7 29
08:25 1017 30.03 846 24.98 9.7 49.5 45 -1.7 28.9
08:30 1017 30.03 846 24.98 9.8 49.6 45 -1.7 29
08:35 1017 30.03 846 24.98 10.2 50.4 43 -1.7 28.9
08:40 1017 30.03 846 24.98 10.4 50.6 43 -1.6 29.1
08:45 1017 30.03 846 24.98 10.6 51.1 43 -1.5 29.3
08:50 1017 30.03 846 24.98 10.8 51.5 42 -1.4 29.4
08:55 1017 30.03 846 24.98 11.2 52.2 41 -1.4 29.5
09:00 1017 30.03 846 24.98 11.4 52.6 41 -1.5 29.4
09:05 1017 30.03 846 24.98 12 53.5 38 -1.9 28.5
09:10 1017 30.03 846 24.98 12.6 54.6 36 -1.9 28.6
09:15 1017 30.03 846 24.98 12.7 54.9 33 -2.9 26.8
09:20 1017 30.03 846 24.98 13 55.3 32 -3.1 26.4
09:25 1017 30.03 846 24.98 13.5 56.4 31 -3.3 26
09:30 1017 30.03 846 24.98 13.6 56.5 31 -3.1 26.4
09:35 1017 30.03 846 24.98 13.8 56.8 31 -3 26.6
09:40 1017 30.03 846 24.98 13.9 57 32 -2.6 27.3
09:45 1017 30.03 846 24.98 13.3 55.9 33 -2.7 27.1
09:50 1017 30.03 846 24.98 13.8 56.9 30 -3.2 26.2
09:55 1017 30.03 846 24.98 14.4 58 31 -2.6 27.3
10:00 1017 30.03 846 24.98 14.6 58.3 31 -2.5 27.6
10:05 1017 30.03 846 24.98 14.6 58.2 31 -2.3 27.9
10:10 1017 30.03 846 24.98 14.8 58.6 30 -2.5 27.5
10:15 1017 30.03 847 25.01 15.5 59.9 31 -1.5 29.3
10:20 1017 30.03 847 25.01 15.2 59.4 33 -0.9 30.3
10:25 1017 30.03 847 25.01 14.8 58.7 35 -0.2 31.6
10:30 1017 30.03 847 25.01 14.2 57.5 36 -0.6 30.9
10:35 1017 30.03 847 25.01 14.2 57.6 37 0 32
10:40 1017 30.03 847 25.01 13.7 56.6 36 -1.1 30
10:45 1017 30.03 847 25.01 13.9 56.9 35 -1.1 30
10:50 1017 30.03 847 25.01 14.4 57.9 34 -1.4 29.5
10:55 1017 30.03 847 25.01 14.4 57.9 34 -1.2 29.8
11:00 1017 30.03 847 25.01 14 57.2 33 -1.9 28.5
11:05 1017 30.03 847 25.01 13.8 56.9 34 -1.8 28.8
11:10 1017 30.03 847 25.01 14.2 57.6 32 -2.1 28.2
11:15 1017 30.03 847 25.01 14.9 58.8 31 -2 28.4
11:20 1018 30.06 847 25.01 14.6 58.2 32 -1.9 28.6
11:25 1018 30.06 847 25.01 14.5 58.1 32 -1.9 28.6
11:30 1018 30.06 847 25.01 14.3 57.8 32 -2.1 28.2
11:35 1018 30.06 847 25.01 15.3 59.6 31 -1.6 29.1
11:40 1017 30.03 847 25.01 15.5 59.9 31 -1.5 29.3
11:45 1017 30.03 847 25.01 15.5 60 30 -1.7 28.9
11:50 1018 30.06 847 25.01 15.5 60 30 -2 28.5
11:55 1017 30.03 847 25.01 15.7 60.2 30 -1.8 28.7
12:00 1017 30.03 847 25.01 16.3 61.4 29 -1.7 28.9
12:05 1017 30.03 847 25.01 16.2 61.1 30 -1.4 29.5
12:10 1017 30.03 847 25.01 15.5 59.9 31 -1.5 29.3
12:15 1017 30.03 847 25.01 15.8 60.4 31 -1.1 30
12:20 1017 30.03 846 24.98 15.7 60.3 30 -1.6 29.1
12:25 1017 30.03 846 24.98 16.1 60.9 29 -2 28.5
12:30 1017 30.03 846 24.98 15.6 60.1 30 -1.8 28.7
12:35 1017 30.03 846 24.98 15.6 60.1 30 -1.9 28.5
12:40 1017 30.03 846 24.98 15.6 60.1 30 -1.8 28.8
12:45 1017 30.03 846 24.98 16.1 61 29 -1.7 28.9
12:50 1017 30.03 846 24.98 16.5 61.7 29 -1.4 29.5
12:55 1017 30.03 846 24.98 15.9 60.7 30 -1.4 29.4
13:00 1017 30.03 846 24.98 16.4 61.5 29 -1.7 29
13:05 1017 30.03 846 24.98 16.5 61.7 29 -1.4 29.5
13:10 1017 30.03 846 24.98 17.1 62.8 28 -1.6 29.1
13:15 1017 30.03 846 24.98 18.2 64.8 26 -1.3 29.7
13:20 1017 30.03 846 24.98 18.5 65.3 26 -1.5 29.4
13:25 1017 30.03 846 24.98 17.5 63.4 28 -1.2 29.8
13:30 1017 30.03 846 24.98 17.3 63.1 28 -1.1 30
13:35 1017 30.03 846 24.98 16.9 62.4 26 -2.8 26.9
13:40 1017 30.03 846 24.98 17.9 64.2 26 -1.6 29.1
13:45 1017 30.03 846 24.98 17.5 63.5 27 -1.4 29.5
13:50 1017 30.03 846 24.98 17.2 62.9 27 -1.7 28.9
13:55 1017 30.03 846 24.98 17.5 63.5 26 -1.9 28.6
14:00 1017 30.03 846 24.98 17.9 64.2 26 -1.9 28.6
14:05 1017 30.03 846 24.98 17.9 64.2 26 -1.8 28.7
14:10 1017 30.03 846 24.98 17.5 63.4 26 -2.2 28
14:15 1017 30.03 846 24.98 17.6 63.6 26 -2.1 28.3
14:20 1017 30.03 846 24.98 17.9 64.2 25 -2.5 27.5
14:25 1017 30.03 846 24.98 17.7 63.9 26 -1.8 28.7
14:30 1016 30 846 24.98 17.3 63.1 26 -2.3 27.9
14:35 1016 30 846 24.98 17.4 63.3 26 -2.4 27.7
14:40 1016 30 846 24.98 17.7 63.8 26 -2.2 28.1
14:45 1016 30 846 24.98 17.5 63.6 26 -2 28.4
14:50 1016 30 846 24.98 17.3 63.2 27 -1.9 28.6
14:55 1016 30 846 24.98 17.5 63.4 26 -2.3 27.8
15:00 1016 30 846 24.98 17.7 63.8 26 -1.8 28.8
15:05 1016 30 846 24.98 17.7 63.8 26 -2 28.4
15:10 1016 30 846 24.98 17.1 62.7 30 -0.6 30.9
15:15 1017 30.03 846 24.98 15.7 60.2 37 1.1 33.9
15:20 1017 30.03 846 24.98 13.9 57 44 1.9 35.4
15:25 1017 30.03 846 24.98 13.2 55.8 45 1.7 35
15:30 1017 30.03 846 24.98 13.4 56.2 44 1.4 34.5
15:35 1017 30.03 846 24.98 13.7 56.7 47 2.6 36.7
15:40 1017 30.03 846 24.98 13.9 56.9 44 2 35.6
15:45 1016 30 846 24.98 14.1 57.4 42 1.4 34.5
15:50 1016 30 846 24.98 14.4 57.9 38 0.2 32.3
15:55 1016 30 846 24.98 14.4 57.9 44 2.5 36.6
16:00 1017 30.03 846 24.98 14.1 57.4 48 3.3 38
16:05 1017 30.03 846 24.98 13.5 56.2 51 3.7 38.6
16:10 1017 30.03 846 24.98 13.2 55.8 53 3.9 39
16:15 1017 30.03 846 24.98 12.9 55.3 59 5.1 41.1
16:20 1017 30.03 846 24.98 12.9 55.2 58 4.8 40.6
16:25 1017 30.03 846 24.98 13 55.3 57 4.8 40.6
16:30 1017 30.03 846 24.98 12.9 55.3 57 4.6 40.3
16:35 1017 30.03 846 24.98 12.8 55 60 5.3 41.6
16:40 1017 30.03 846 24.98 12.3 54.1 63 5.5 41.8
16:45 1017 30.03 846 24.98 12 53.7 66 5.9 42.6
16:50 1017 30.03 846 24.98 12 53.6 64 5.5 41.9
16:55 1017 30.03 846 24.98 12.5 54.5 60 5.1 41.2
17:00 1017 30.03 846 24.98 13 55.3 59 5.1 41.2
17:05 1017 30.03 846 24.98 13 55.4 59 5.1 41.2
17:10 1017 30.03 846 24.98 13 55.4 58 5 41.1
17:15 1017 30.03 846 24.98 13.3 55.9 57 5 41
17:20 1017 30.03 846 24.98 13.1 55.5 54 4 39.3
17:25 1017 30.03 846 24.98 13.1 55.5 56 4.6 40.4
17:30 1017 30.03 846 24.98 13.2 55.7 59 5.4 41.6
17:35 1017 30.03 846 24.98 12.5 54.5 61 5.2 41.4
17:40 1017 30.03 846 24.98 12 53.6 62 5.1 41.2
17:45 1017 30.03 846 24.98 11.7 53.1 62 4.8 40.6
17:50 1017 30.03 846 24.98 11.8 53.3 60 4.5 40
17:55 1017 30.03 846 24.98 11.7 53.1 63 4.9 40.8
18:00 1017 30.03 846 24.98 11.7 53.1 61 4.5 40.2
18:05 1017 30.03 846 24.98 11.7 53 60 4.3 39.7
18:10 1017 30.03 846 24.98 11.8 53.2 59 4.2 39.5
18:15 1017 30.03 846 24.98 12.1 53.8 54 3 37.5
18:20 1017 30.03 846 24.98 12.7 54.8 53 3.3 37.9
18:25 1017 30.03 846 24.98 13.2 55.7 51 3.4 38.1
18:30 1017 30.03 846 24.98 13.4 56.1 52 3.7 38.6
18:35 1017 30.03 846 24.98 13.6 56.4 49 3.2 37.7
18:40 1017 30.03 846 24.98 13.6 56.4 46 2.1 35.8
18:45 1017 30.03 846 24.98 13.6 56.5 44 1.5 34.8
18:50 1017 30.03 846 24.98 13.6 56.5 44 1.8 35.2
18:55 1017 30.03 846 24.98 13.6 56.6 46 2.4 36.4
19:00 1017 30.03 846 24.98 13.6 56.4 46 2.3 36.1
19:05 1017 30.03 846 24.98 13.5 56.3 47 2.6 36.6
19:10 1017 30.03 846 24.98 13.4 56.1 47 2.4 36.3
19:15 1017 30.03 846 24.98 13.3 55.9 49 2.8 37
19:20 1017 30.03 846 24.98 13.2 55.8 49 3 37.3
19:25 1017 30.03 846 24.98 13.1 55.6 50 3 37.3
19:30 1017 30.03 846 24.98 13 55.4 51 3.1 37.5
19:35 1017 30.03 846 24.98 12.9 55.3 51 3.1 37.7
19:40 1017 30.03 846 24.98 12.9 55.2 51 3.2 37.7
19:45 1016 30 846 24.98 12.7 54.9 52 3.1 37.5
19:50 1016 30 846 24.98 12.6 54.6 52 3 37.5
19:55 1016 30 846 24.98 12.4 54.3 52 2.9 37.2
20:00 1016 30 846 24.98 12.3 54.1 53 2.9 37.2
20:05 1016 30 846 24.98 12 53.7 55 3.3 38
20:10 1017 30.03 846 24.98 11.7 53 57 3.5 38.2
20:15 1017 30.03 846 24.98 11.5 52.6 58 3.4 38.2
20:20 1017 30.03 846 24.98 11.4 52.4 58 3.4 38.2
20:25 1017 30.03 846 24.98 11.1 52 59 3.5 38.4
20:30 1017 30.03 846 24.98 10.9 51.6 61 3.6 38.5
20:35 1017 30.03 846 24.98 10.5 51 62 3.6 38.4
20:40 1017 30.03 846 24.98 10.4 50.8 60 3 37.3
20:45 1017 30.03 846 24.98 10.7 51.3 57 2.6 36.7
20:50 1017 30.03 846 24.98 10.9 51.5 56 2.5 36.5
20:55 1017 30.03 846 24.98 10.8 51.4 57 2.6 36.7
21:00 1017 30.03 846 24.98 10.6 51.1 58 2.7 36.8
21:05 1017 30.03 846 24.98 10.5 50.9 58 2.7 36.9
21:10 1017 30.03 846 24.98 10.5 50.8 58 2.6 36.7
21:15 1017 30.03 846 24.98 10.4 50.8 59 2.7 36.9
21:20 1017 30.03 846 24.98 10.4 50.6 59 2.8 37.1
21:25 1017 30.03 846 24.98 10.2 50.3 61 2.9 37.3
21:30 1017 30.03 846 24.98 10 50.1 62 3 37.5
21:35 1017 30.03 846 24.98 9.8 49.6 63 3.2 37.7
21:40 1017 30.03 846 24.98 9.6 49.3 64 3.2 37.7
21:45 1017 30.03 846 24.98 9.5 49 65 3.2 37.7
21:50 1017 30.03 846 24.98 9.3 48.7 66 3.3 37.9
21:55 1017 30.03 846 24.98 9.1 48.4 66 3.2 37.7
22:00 1017 30.03 846 24.98 9.1 48.3 66 3.2 37.7
22:05 1017 30.03 846 24.98 9 48.1 67 3.2 37.8
22:10 1017 30.03 846 24.98 8.8 47.8 68 3.2 37.7
22:15 1017 30.03 846 24.98 8.7 47.7 68 3.1 37.6
22:20 1017 30.03 846 24.98 8.6 47.4 68 3 37.5
22:25 1017 30.03 846 24.98 8.4 47.1 68 2.9 37.2
22:30 1017 30.03 846 24.98 8.1 46.6 68 2.6 36.7
22:35 1017 30.03 846 24.98 7.8 46 69 2.4 36.4
22:40 1017 30.03 846 24.98 7.6 45.7 69 2.3 36.2
22:45 1017 30.03 846 24.98 7.6 45.8 68 2.2 36
22:50 1017 30.03 846 24.98 7.6 45.7 69 2.3 36.1
22:55 1017 30.03 846 24.98 7.6 45.6 69 2.3 36.1
23:00 1017 30.03 846 24.98 7.6 45.7 69 2.4 36.3
23:05 1017 30.03 846 24.98 7.5 45.6 69 2.2 36
23:10 1017 30.03 846 24.98 7.5 45.4 69 2.1 35.8
23:15 1017 30.03 846 24.98 7.3 45.2 67 1.7 35
23:20 1017 30.03 846 24.98 7.4 45.2 67 1.6 34.8
23:25 1017 30.03 846 24.98 7.7 45.9 66 1.7 35.1
23:30 1017 30.03 846 24.98 7.5 45.5 68 2.1 35.7
23:35 1017 30.03 846 24.98 7.1 44.8 70 2.1 35.8
23:40 1017 30.03 846 24.98 7.1 44.7 71 2.1 35.8
23:45 1017 30.03 846 24.98 7 44.7 71 2.1 35.8
23:50 1017 30.03 846 24.98 6.9 44.5 73 2.4 36.3
23:55 1017 30.03 846 24.98 6.9 44.5 72 2.2 35.9
24:00 1017 30.03 846 24.98 6.9 44.4 72 2.2 35.9